createdAt,value
2022-09-12T00:00:01.582Z,100
2022-09-12T00:01:01.864Z,100
2022-09-12T00:02:02.172Z,100
2022-09-12T00:03:02.061Z,100
2022-09-12T00:04:02.080Z,100
2022-09-12T00:05:02.132Z,100
2022-09-12T00:06:01.962Z,100
2022-09-12T00:07:01.964Z,100
2022-09-12T00:08:02.003Z,100
2022-09-12T00:09:01.818Z,100
2022-09-12T00:10:01.879Z,100
2022-09-12T00:11:01.674Z,100
2022-09-12T00:12:02.740Z,100
2022-09-12T00:13:01.544Z,100
2022-09-12T00:14:02.594Z,100
2022-09-12T00:15:02.403Z,100
2022-09-12T00:16:02.274Z,100
2022-09-12T00:17:02.303Z,100
2022-09-12T00:18:02.134Z,100
2022-09-12T00:19:02.158Z,100
2022-09-12T00:20:02.194Z,100
2022-09-12T00:21:02.035Z,100
2022-09-12T00:22:02.014Z,100
2022-09-12T00:23:02.087Z,100
2022-09-12T00:24:01.945Z,100
2022-09-12T00:25:01.983Z,100
2022-09-12T00:26:01.802Z,100
2022-09-12T00:27:01.857Z,100
2022-09-12T00:28:01.640Z,100
2022-09-12T00:29:02.740Z,100
2022-09-12T00:30:01.576Z,100
2022-09-12T00:31:01.765Z,100
2022-09-12T00:32:01.763Z,100
2022-09-12T00:33:01.594Z,100
2022-09-12T00:34:02.628Z,100
2022-09-12T00:35:02.482Z,100
2022-09-12T00:36:02.459Z,100
2022-09-12T00:37:02.224Z,100
2022-09-12T00:38:02.287Z,100
2022-09-12T00:39:02.099Z,100
2022-09-12T00:40:02.177Z,100
2022-09-12T00:41:02.317Z,100
2022-09-12T00:42:02.157Z,100
2022-09-12T00:43:02.173Z,100
2022-09-12T00:44:02.201Z,100
2022-09-12T00:45:02.451Z,100
2022-09-12T00:46:02.766Z,100
2022-09-12T00:47:01.709Z,100
2022-09-12T00:48:01.584Z,100
2022-09-12T00:49:02.678Z,100
2022-09-12T00:50:02.554Z,100
2022-09-12T00:51:02.526Z,100
2022-09-12T00:52:02.542Z,100
2022-09-12T00:53:02.382Z,100
2022-09-12T00:54:02.442Z,100
2022-09-12T00:55:02.242Z,100
2022-09-12T00:56:02.347Z,100
2022-09-12T00:57:02.137Z,100
2022-09-12T00:58:02.168Z,100
2022-09-12T00:59:02.221Z,100
2022-09-12T01:00:02.065Z,100
2022-09-12T01:01:02.167Z,100
2022-09-12T01:02:02.754Z,100
2022-09-12T01:03:01.939Z,100
2022-09-12T01:04:02.030Z,100
2022-09-12T01:05:01.793Z,100
2022-09-12T01:06:01.847Z,100
2022-09-12T01:07:01.637Z,100
2022-09-12T01:08:02.718Z,100
2022-09-12T01:09:01.583Z,100
2022-09-12T01:10:02.654Z,100
2022-09-12T01:11:02.479Z,100
2022-09-12T01:12:02.505Z,100
2022-09-12T01:13:02.326Z,100
2022-09-12T01:14:02.388Z,100
2022-09-12T01:15:02.349Z,100
2022-09-12T01:16:02.267Z,100
2022-09-12T01:17:02.327Z,100
2022-09-12T01:18:02.331Z,100
2022-09-12T01:19:02.118Z,100
2022-09-12T01:20:02.120Z,100
2022-09-12T01:21:01.980Z,100
2022-09-12T01:22:01.905Z,100
2022-09-12T01:23:01.928Z,100
2022-09-12T01:24:01.711Z,100
2022-09-12T01:25:01.772Z,100
2022-09-12T01:26:01.590Z,100
2022-09-12T01:27:02.680Z,100
2022-09-12T01:28:02.484Z,100
2022-09-12T01:29:02.618Z,100
2022-09-12T01:30:02.471Z,100
2022-09-12T01:31:02.376Z,100
2022-09-12T01:32:02.522Z,100
2022-09-12T01:33:02.506Z,100
2022-09-12T01:34:02.535Z,100
2022-09-12T01:35:02.320Z,100
2022-09-12T01:36:02.366Z,100
2022-09-12T01:37:02.402Z,100
2022-09-12T01:38:02.230Z,100
2022-09-12T01:39:02.278Z,100
2022-09-12T01:40:02.209Z,100
2022-09-12T01:41:02.296Z,100
2022-09-12T01:42:02.365Z,100
2022-09-12T01:43:02.398Z,100
2022-09-12T01:44:02.345Z,100
2022-09-12T01:45:02.209Z,100
2022-09-12T01:46:02.165Z,100
2022-09-12T01:47:02.203Z,100
2022-09-12T01:48:02.238Z,100
2022-09-12T01:49:02.085Z,100
2022-09-12T01:50:02.259Z,100
2022-09-12T01:51:02.122Z,100
2022-09-12T01:52:01.978Z,100
2022-09-12T01:53:02.012Z,100
2022-09-12T01:54:02.072Z,100
2022-09-12T01:55:05.416Z,100
2022-09-12T01:56:01.563Z,100
2022-09-12T01:57:02.605Z,100
2022-09-12T01:58:02.436Z,100
2022-09-12T01:59:02.485Z,100
2022-09-12T02:00:02.321Z,100
2022-09-12T02:01:02.533Z,100
2022-09-12T02:02:02.797Z,100
2022-09-12T02:03:01.733Z,100
2022-09-12T02:04:01.798Z,100
2022-09-12T02:05:01.641Z,100
2022-09-12T02:06:02.637Z,100
2022-09-12T02:07:02.454Z,100
2022-09-12T02:08:02.496Z,100
2022-09-12T02:09:02.312Z,100
2022-09-12T02:10:02.322Z,100
2022-09-12T02:11:02.131Z,100
2022-09-12T02:12:02.115Z,100
2022-09-12T02:13:02.117Z,100
2022-09-12T02:14:01.909Z,100
2022-09-12T02:15:01.882Z,100
2022-09-12T02:16:01.702Z,100
2022-09-12T02:17:02.811Z,100
2022-09-12T02:18:01.612Z,100
2022-09-12T02:19:02.694Z,100
2022-09-12T02:20:02.490Z,100
2022-09-12T02:21:02.523Z,100
2022-09-12T02:22:02.352Z,100
2022-09-12T02:23:02.375Z,100
2022-09-12T02:24:02.341Z,100
2022-09-12T02:25:02.142Z,100
2022-09-12T02:26:02.179Z,100
2022-09-12T02:27:02.004Z,100
2022-09-12T02:28:01.975Z,100
2022-09-12T02:29:01.960Z,100
2022-09-12T02:30:01.806Z,100
2022-09-12T02:31:02.039Z,100
2022-09-12T02:32:02.105Z,100
2022-09-12T02:33:01.916Z,100
2022-09-12T02:34:01.939Z,100
2022-09-12T02:35:01.709Z,100
2022-09-12T02:36:01.800Z,100
2022-09-12T02:37:01.621Z,100
2022-09-12T02:38:02.682Z,100
2022-09-12T02:39:02.551Z,100
2022-09-12T02:40:02.659Z,100
2022-09-12T02:41:01.592Z,100
2022-09-12T02:42:02.628Z,100
2022-09-12T02:43:02.440Z,100
2022-09-12T02:44:02.441Z,100
2022-09-12T02:45:02.281Z,100
2022-09-12T02:46:02.239Z,100
2022-09-12T02:47:02.361Z,100
2022-09-12T02:48:02.402Z,100
2022-09-12T02:49:02.217Z,100
2022-09-12T02:50:02.310Z,100
2022-09-12T02:51:02.169Z,100
2022-09-12T02:52:02.182Z,100
2022-09-12T02:53:02.259Z,100
2022-09-12T02:54:02.076Z,100
2022-09-12T02:55:02.000Z,100
2022-09-12T02:56:02.072Z,100
2022-09-12T02:57:01.850Z,100
2022-09-12T02:58:01.886Z,100
2022-09-12T02:59:01.677Z,100
2022-09-12T03:00:02.733Z,100
2022-09-12T03:01:02.557Z,100
2022-09-12T03:02:02.757Z,100
2022-09-12T03:03:01.636Z,100
2022-09-12T03:04:02.700Z,100
2022-09-12T03:05:02.523Z,100
2022-09-12T03:06:02.538Z,100
2022-09-12T03:07:02.397Z,100
2022-09-12T03:08:02.376Z,100
2022-09-12T03:09:02.376Z,100
2022-09-12T03:10:02.214Z,100
2022-09-12T03:11:02.316Z,100
2022-09-12T03:12:02.148Z,100
2022-09-12T03:13:02.187Z,100
2022-09-12T03:14:02.284Z,100
2022-09-12T03:15:02.102Z,100
2022-09-12T03:16:01.681Z,100
2022-09-12T03:17:01.719Z,100
2022-09-12T03:18:02.808Z,100
2022-09-12T03:19:01.630Z,100
2022-09-12T03:20:02.691Z,100
2022-09-12T03:21:02.504Z,100
2022-09-12T03:22:02.573Z,100
2022-09-12T03:23:02.406Z,100
2022-09-12T03:24:02.500Z,100
2022-09-12T03:25:02.306Z,100
2022-09-12T03:26:02.393Z,100
2022-09-12T03:27:02.383Z,100
2022-09-12T03:28:02.200Z,100
2022-09-12T03:29:02.283Z,100
2022-09-12T03:30:02.150Z,100
2022-09-12T03:31:02.383Z,100
2022-09-12T03:32:02.433Z,100
2022-09-12T03:33:02.240Z,100
2022-09-12T03:34:02.272Z,100
2022-09-12T03:35:02.106Z,100
2022-09-12T03:36:02.078Z,100
2022-09-12T03:37:02.112Z,100
2022-09-12T03:38:01.893Z,100
2022-09-12T03:39:01.925Z,100
2022-09-12T03:40:01.911Z,100
2022-09-12T03:41:02.079Z,100
2022-09-12T03:42:02.168Z,100
2022-09-12T03:43:01.986Z,100
2022-09-12T03:44:01.967Z,100
2022-09-12T03:45:01.998Z,100
2022-09-12T03:46:01.780Z,100
2022-09-12T03:47:01.863Z,100
2022-09-12T03:48:01.656Z,100
2022-09-12T03:49:01.768Z,100
2022-09-12T03:50:01.542Z,100
2022-09-12T03:51:02.568Z,100
2022-09-12T03:52:02.423Z,100
2022-09-12T03:53:02.400Z,100
2022-09-12T03:54:02.179Z,100
2022-09-12T03:55:02.286Z,100
2022-09-12T03:56:02.101Z,100
2022-09-12T03:57:02.094Z,100
2022-09-12T03:58:02.165Z,100
2022-09-12T03:59:02.004Z,100
2022-09-12T04:00:02.037Z,100
2022-09-12T04:01:01.722Z,100
2022-09-12T04:02:01.899Z,100
2022-09-12T04:03:01.840Z,100
2022-09-12T04:04:01.879Z,100
2022-09-12T04:05:01.708Z,100
2022-09-12T04:06:01.733Z,100
2022-09-12T04:07:02.756Z,100
2022-09-12T04:08:01.577Z,100
2022-09-12T04:09:02.659Z,100
2022-09-12T04:10:02.490Z,100
2022-09-12T04:11:02.494Z,100
2022-09-12T04:12:02.311Z,100
2022-09-12T04:13:02.345Z,100
2022-09-12T04:14:02.130Z,100
2022-09-12T04:15:02.355Z,100
2022-09-12T04:16:02.428Z,100
2022-09-12T04:17:02.430Z,100
2022-09-12T04:18:06.370Z,100
2022-09-12T04:19:02.266Z,100
2022-09-12T04:20:02.243Z,100
2022-09-12T04:21:02.040Z,100
2022-09-12T04:22:01.995Z,100
2022-09-12T04:23:01.987Z,100
2022-09-12T04:24:01.815Z,100
2022-09-12T04:25:01.841Z,100
2022-09-12T04:26:01.659Z,100
2022-09-12T04:27:07.879Z,100
2022-09-12T04:28:01.811Z,100
2022-09-12T04:29:01.781Z,100
2022-09-12T04:30:01.587Z,100
2022-09-12T04:31:02.116Z,100
2022-09-12T04:32:02.230Z,100
2022-09-12T04:33:08.360Z,100
2022-09-12T04:34:02.211Z,100
2022-09-12T04:35:02.278Z,100
2022-09-12T04:36:02.094Z,100
2022-09-12T04:37:02.038Z,100
2022-09-12T04:38:02.049Z,100
2022-09-12T04:39:01.877Z,100
2022-09-12T04:40:02.027Z,100
2022-09-12T04:41:01.907Z,100
2022-09-12T04:42:01.918Z,100
2022-09-12T04:43:01.763Z,100
2022-09-12T04:44:01.718Z,100
2022-09-12T04:45:02.721Z,100
2022-09-12T04:46:02.571Z,100
2022-09-12T04:47:02.610Z,100
2022-09-12T04:48:02.446Z,100
2022-09-12T04:49:02.431Z,100
2022-09-12T04:50:02.208Z,100
2022-09-12T04:51:02.263Z,100
2022-09-12T04:52:02.026Z,100
2022-09-12T04:53:01.980Z,100
2022-09-12T04:54:01.926Z,100
2022-09-12T04:55:01.784Z,100
2022-09-12T04:56:02.389Z,100
2022-09-12T04:57:02.176Z,100
2022-09-12T04:58:02.194Z,100
2022-09-12T04:59:02.016Z,100
2022-09-12T05:00:07.477Z,100
2022-09-12T05:01:01.668Z,100
2022-09-12T05:02:02.915Z,100
2022-09-12T05:03:01.838Z,100
2022-09-12T05:04:01.835Z,100
2022-09-12T05:05:01.752Z,100
2022-09-12T05:06:01.607Z,100
2022-09-12T05:07:02.583Z,100
2022-09-12T05:08:02.395Z,100
2022-09-12T05:09:02.470Z,100
2022-09-12T05:10:02.319Z,100
2022-09-12T05:11:02.340Z,100
2022-09-12T05:12:05.731Z,100
2022-09-12T05:13:01.740Z,100
2022-09-12T05:14:01.761Z,100
2022-09-12T05:15:01.553Z,100
2022-09-12T05:16:01.762Z,100
2022-09-12T05:17:02.467Z,100
2022-09-12T05:18:02.655Z,100
2022-09-12T05:19:02.483Z,100
2022-09-12T05:20:02.525Z,100
2022-09-12T05:21:02.387Z,100
2022-09-12T05:22:02.412Z,100
2022-09-12T05:23:02.405Z,100
2022-09-12T05:24:02.231Z,100
2022-09-12T05:25:02.328Z,100
2022-09-12T05:26:02.121Z,100
2022-09-12T05:27:02.099Z,100
2022-09-12T05:28:02.078Z,100
2022-09-12T05:29:01.895Z,100
2022-09-12T05:30:01.929Z,100
2022-09-12T05:31:02.703Z,100
2022-09-12T05:32:01.623Z,100
2022-09-12T05:33:02.630Z,100
2022-09-12T05:34:02.453Z,100
2022-09-12T05:35:02.505Z,100
2022-09-12T05:36:02.331Z,100
2022-09-12T05:37:02.329Z,100
2022-09-12T05:38:02.124Z,100
2022-09-12T05:39:02.160Z,100
2022-09-12T05:40:02.299Z,100
2022-09-12T05:41:02.326Z,100
2022-09-12T05:42:02.151Z,100
2022-09-12T05:43:02.204Z,100
2022-09-12T05:44:02.028Z,100
2022-09-12T05:45:02.040Z,100
2022-09-12T05:46:02.120Z,100
2022-09-12T05:47:02.209Z,100
2022-09-12T05:48:02.020Z,100
2022-09-12T05:49:02.034Z,100
2022-09-12T05:50:02.116Z,100
2022-09-12T05:51:01.957Z,100
2022-09-12T05:52:01.970Z,100
2022-09-12T05:53:02.023Z,100
2022-09-12T05:54:01.880Z,100
2022-09-12T05:55:01.910Z,100
2022-09-12T05:56:01.685Z,100
2022-09-12T05:57:01.713Z,100
2022-09-12T05:58:02.741Z,100
2022-09-12T05:59:01.569Z,100
2022-09-12T06:00:02.587Z,100
2022-09-12T06:01:02.273Z,100
2022-09-12T06:02:02.421Z,100
2022-09-12T06:03:02.502Z,100
2022-09-12T06:04:02.323Z,100
2022-09-12T06:05:02.430Z,100
2022-09-12T06:06:02.360Z,100
2022-09-12T06:07:02.216Z,100
2022-09-12T06:08:02.042Z,100
2022-09-12T06:09:02.069Z,100
2022-09-12T06:10:02.065Z,100
2022-09-12T06:11:02.931Z,100
2022-09-12T06:12:01.761Z,100
2022-09-12T06:13:01.813Z,100
2022-09-12T06:14:01.613Z,100
2022-09-12T06:15:02.644Z,100
2022-09-12T06:16:02.476Z,100
2022-09-12T06:17:02.650Z,100
2022-09-12T06:18:01.614Z,100
2022-09-12T06:19:02.679Z,100
2022-09-12T06:20:02.508Z,100
2022-09-12T06:21:02.515Z,100
2022-09-12T06:22:02.335Z,100
2022-09-12T06:23:02.419Z,100
2022-09-12T06:24:02.352Z,100
2022-09-12T06:25:02.173Z,100
2022-09-12T06:26:02.205Z,100
2022-09-12T06:27:02.033Z,100
2022-09-12T06:28:01.984Z,100
2022-09-12T06:29:01.984Z,100
2022-09-12T06:30:01.803Z,100
2022-09-12T06:31:02.533Z,100
2022-09-12T06:32:01.754Z,100
2022-09-12T06:33:01.579Z,100
2022-09-12T06:34:02.624Z,100
2022-09-12T06:35:02.484Z,100
2022-09-12T06:36:02.502Z,100
2022-09-12T06:37:02.296Z,100
2022-09-12T06:38:02.338Z,100
2022-09-12T06:39:02.146Z,100
2022-09-12T06:40:02.715Z,100
2022-09-12T06:41:01.860Z,100
2022-09-12T06:42:01.651Z,100
2022-09-12T06:43:02.744Z,100
2022-09-12T06:44:01.580Z,100
2022-09-12T06:45:02.701Z,100
2022-09-12T06:46:01.802Z,100
2022-09-12T06:47:01.866Z,100
2022-09-12T06:48:01.663Z,100
2022-09-12T06:49:02.705Z,100
2022-09-12T06:50:02.542Z,100
2022-09-12T06:51:02.538Z,100
2022-09-12T06:52:02.348Z,100
2022-09-12T06:53:02.414Z,100
2022-09-12T06:54:02.453Z,100
2022-09-12T06:55:02.293Z,100
2022-09-12T06:56:02.341Z,100
2022-09-12T06:57:02.344Z,100
2022-09-12T06:58:02.165Z,100
2022-09-12T06:59:02.230Z,100
2022-09-12T07:00:02.028Z,100
2022-09-12T07:01:02.395Z,100
2022-09-12T07:02:02.564Z,100
2022-09-12T07:03:02.656Z,100
2022-09-12T07:04:02.464Z,100
2022-09-12T07:05:02.541Z,100
2022-09-12T07:06:02.364Z,100
2022-09-12T07:07:02.421Z,100
2022-09-12T07:08:02.439Z,100
2022-09-12T07:09:02.223Z,100
2022-09-12T07:10:02.302Z,100
2022-09-12T07:11:02.125Z,100
2022-09-12T07:12:02.118Z,100
2022-09-12T07:13:02.100Z,100
2022-09-12T07:14:01.917Z,100
2022-09-12T07:15:01.980Z,100
2022-09-12T07:16:01.773Z,100
2022-09-12T07:17:01.948Z,100
2022-09-12T07:18:01.911Z,100
2022-09-12T07:19:01.988Z,100
2022-09-12T07:20:01.769Z,100
2022-09-12T07:21:01.790Z,100
2022-09-12T07:22:01.621Z,100
2022-09-12T07:23:02.675Z,100
2022-09-12T07:24:02.520Z,100
2022-09-12T07:25:02.531Z,100
2022-09-12T07:26:02.359Z,100
2022-09-12T07:27:02.403Z,100
2022-09-12T07:28:02.441Z,100
2022-09-12T07:29:36.331Z,100
2022-09-12T07:30:01.625Z,100
2022-09-12T07:31:02.239Z,100
2022-09-12T07:32:02.157Z,100
2022-09-12T07:33:02.224Z,100
2022-09-12T07:34:02.261Z,100
2022-09-12T07:35:02.108Z,100
2022-09-12T07:36:02.103Z,100
2022-09-12T07:37:02.167Z,100
2022-09-12T07:38:01.962Z,100
2022-09-12T07:39:02.018Z,100
2022-09-12T07:40:02.163Z,100
2022-09-12T07:41:02.139Z,100
2022-09-12T07:42:02.144Z,100
2022-09-12T07:43:02.228Z,100
2022-09-12T07:44:02.391Z,100
2022-09-12T07:45:02.178Z,100
2022-09-12T07:46:02.343Z,100
2022-09-12T07:47:02.456Z,100
2022-09-12T07:48:02.224Z,100
2022-09-12T07:49:02.277Z,100
2022-09-12T07:50:02.090Z,100
2022-09-12T07:51:02.146Z,100
2022-09-12T07:52:02.159Z,100
2022-09-12T07:53:01.957Z,100
2022-09-12T07:54:02.025Z,100
2022-09-12T07:55:02.062Z,100
2022-09-12T07:56:01.839Z,100
2022-09-12T07:57:01.867Z,100
2022-09-12T07:58:01.677Z,100
2022-09-12T07:59:02.686Z,100
2022-09-12T08:00:02.509Z,100
2022-09-12T08:01:02.534Z,100
2022-09-12T08:02:02.789Z,100
2022-09-12T08:03:01.682Z,100
2022-09-12T08:04:01.723Z,100
2022-09-12T08:05:02.755Z,100
2022-09-12T08:06:01.609Z,100
2022-09-12T08:07:02.649Z,100
2022-09-12T08:08:02.614Z,100
2022-09-12T08:09:02.488Z,100
2022-09-12T08:10:02.321Z,100
2022-09-12T08:11:02.334Z,100
2022-09-12T08:12:02.152Z,100
2022-09-12T08:13:02.124Z,100
2022-09-12T08:14:02.128Z,100
2022-09-12T08:15:01.959Z,100
2022-09-12T08:16:01.729Z,100
2022-09-12T08:17:01.867Z,100
2022-09-12T08:18:01.665Z,100
2022-09-12T08:19:01.755Z,100
2022-09-12T08:20:01.619Z,100
2022-09-12T08:21:02.667Z,100
2022-09-12T08:22:02.473Z,100
2022-09-12T08:23:02.516Z,100
2022-09-12T08:24:02.333Z,100
2022-09-12T08:25:02.386Z,100
2022-09-12T08:26:06.525Z,100
2022-09-12T08:27:02.417Z,100
2022-09-12T08:28:02.414Z,100
2022-09-12T08:29:02.224Z,100
2022-09-12T08:30:02.286Z,100
2022-09-12T08:31:01.917Z,100
2022-09-12T08:32:01.989Z,100
2022-09-12T08:33:01.746Z,100
2022-09-12T08:34:01.788Z,100
2022-09-12T08:35:01.614Z,100
2022-09-12T08:36:02.652Z,100
2022-09-12T08:37:02.481Z,100
2022-09-12T08:38:02.554Z,100
2022-09-12T08:39:02.402Z,100
2022-09-12T08:40:02.588Z,100
2022-09-12T08:41:02.474Z,100
2022-09-12T08:42:02.671Z,100
2022-09-12T08:43:01.679Z,100
2022-09-12T08:44:02.746Z,100
2022-09-12T08:45:01.567Z,100
2022-09-12T08:46:02.457Z,100
2022-09-12T08:47:02.556Z,100
2022-09-12T08:48:02.635Z,100
2022-09-12T08:49:02.638Z,100
2022-09-12T08:50:02.483Z,100
2022-09-12T08:51:02.530Z,100
2022-09-12T08:52:02.422Z,100
2022-09-12T08:53:02.358Z,100
2022-09-12T08:54:02.368Z,95
2022-09-12T08:55:02.209Z,95
2022-09-12T08:56:02.204Z,99
2022-09-12T08:57:02.040Z,99
2022-09-12T08:58:02.058Z,92
2022-09-12T08:59:02.160Z,96
2022-09-12T09:00:01.980Z,90
2022-09-12T09:01:01.712Z,93
2022-09-12T09:02:01.922Z,93
2022-09-12T09:03:01.858Z,96
2022-09-12T09:04:01.788Z,94
2022-09-12T09:05:01.618Z,100
2022-09-12T09:06:02.672Z,97
2022-09-12T09:07:02.501Z,100
2022-09-12T09:08:02.568Z,98
2022-09-12T09:09:02.371Z,98
2022-09-12T09:10:02.420Z,93
2022-09-12T09:11:02.429Z,96
2022-09-12T09:12:02.191Z,93
2022-09-12T09:13:02.260Z,93
2022-09-12T09:14:05.681Z,89
2022-09-12T09:15:02.562Z,89
2022-09-12T09:16:02.673Z,91
2022-09-12T09:17:01.868Z,87
2022-09-12T09:18:01.680Z,87
2022-09-12T09:19:01.742Z,90
2022-09-12T09:20:02.702Z,87
2022-09-12T09:21:02.539Z,87
2022-09-12T09:22:02.539Z,86
2022-09-12T09:23:02.383Z,85
2022-09-12T09:24:02.358Z,86
2022-09-12T09:25:02.142Z,86
2022-09-12T09:26:02.158Z,91
2022-09-12T09:27:02.268Z,91
2022-09-12T09:28:02.057Z,90
2022-09-12T09:29:02.098Z,89
2022-09-12T09:30:02.147Z,87
2022-09-12T09:31:01.806Z,87
2022-09-12T09:32:01.959Z,89
2022-09-12T09:33:01.813Z,91
2022-09-12T09:34:01.790Z,95
2022-09-12T09:35:01.604Z,93
2022-09-12T09:36:02.700Z,90
2022-09-12T09:37:02.520Z,90
2022-09-12T09:38:02.622Z,92
2022-09-12T09:39:02.462Z,94
2022-09-12T09:40:02.647Z,89
2022-09-12T09:41:01.645Z,94
2022-09-12T09:42:02.624Z,90
2022-09-12T09:43:02.449Z,90
2022-09-12T09:44:02.515Z,88
2022-09-12T09:45:02.464Z,90
2022-09-12T09:46:02.419Z,85
2022-09-12T09:47:02.553Z,85
2022-09-12T09:48:02.380Z,86
2022-09-12T09:49:02.417Z,83
2022-09-12T09:50:02.501Z,82
2022-09-12T09:51:02.356Z,76
2022-09-12T09:52:02.356Z,77
2022-09-12T09:53:02.169Z,75
2022-09-12T09:54:02.188Z,79
2022-09-12T09:55:02.244Z,78
2022-09-12T09:56:02.072Z,81
2022-09-12T09:57:01.987Z,81
2022-09-12T09:58:01.994Z,87
2022-09-12T09:59:01.848Z,87
2022-09-12T10:00:01.852Z,88
2022-09-12T10:01:02.799Z,86
2022-09-12T10:02:01.925Z,91
2022-09-12T10:03:02.100Z,96
2022-09-12T10:04:01.943Z,89
2022-09-12T10:05:02.009Z,89
2022-09-12T10:06:01.900Z,87
2022-09-12T10:07:01.860Z,84
2022-09-12T10:08:01.675Z,86
2022-09-12T10:09:02.727Z,81
2022-09-12T10:10:01.571Z,82
2022-09-12T10:11:02.671Z,80
2022-09-12T10:12:02.530Z,79
2022-09-12T10:13:02.573Z,74
2022-09-12T10:14:02.380Z,76
2022-09-12T10:15:02.410Z,79
2022-09-12T10:16:02.037Z,81
2022-09-12T10:17:02.156Z,81
2022-09-12T10:18:01.927Z,76
2022-09-12T10:19:01.968Z,77
2022-09-12T10:20:21.955Z,71
2022-09-12T10:21:02.044Z,76
2022-09-12T10:22:02.035Z,74
2022-09-12T10:23:02.106Z,76
2022-09-12T10:24:01.883Z,76
2022-09-12T10:25:01.908Z,79
2022-09-12T10:26:01.761Z,84
2022-09-12T10:27:01.787Z,80
2022-09-12T10:28:01.677Z,81
2022-09-12T10:29:02.669Z,79
2022-09-12T10:30:02.577Z,77
2022-09-12T10:31:02.020Z,75
2022-09-12T10:32:02.116Z,78
2022-09-12T10:33:01.958Z,77
2022-09-12T10:34:01.871Z,83
2022-09-12T10:35:01.898Z,76
2022-09-12T10:36:01.679Z,83
2022-09-12T10:37:01.708Z,79
2022-09-12T10:38:02.724Z,77
2022-09-12T10:39:01.623Z,83
2022-09-12T10:40:02.740Z,79
2022-09-12T10:41:01.630Z,80
2022-09-12T10:42:02.671Z,79
2022-09-12T10:43:01.972Z,78
2022-09-12T10:44:01.966Z,74
2022-09-12T10:45:01.778Z,77
2022-09-12T10:46:01.738Z,82
2022-09-12T10:47:01.894Z,79
2022-09-12T10:48:07.861Z,74
2022-09-12T10:49:01.705Z,82
2022-09-12T10:50:01.749Z,78
2022-09-12T10:51:01.602Z,75
2022-09-12T10:52:02.599Z,72
2022-09-12T10:53:02.671Z,67
2022-09-12T10:54:02.489Z,69
2022-09-12T10:55:02.380Z,66
2022-09-12T10:56:02.215Z,66
2022-09-12T10:57:02.074Z,65
2022-09-12T10:58:01.956Z,62
2022-09-12T10:59:01.854Z,65
2022-09-12T11:00:01.693Z,65
2022-09-12T11:01:02.594Z,63
2022-09-12T11:02:01.724Z,66
2022-09-12T11:03:01.772Z,69
2022-09-12T11:04:01.631Z,71
2022-09-12T11:05:02.552Z,68
2022-09-12T11:06:02.439Z,72
2022-09-12T11:07:02.283Z,77
2022-09-12T11:08:02.104Z,75
2022-09-12T11:09:02.011Z,85
2022-09-12T11:10:01.800Z,70
2022-09-12T11:11:01.646Z,71
2022-09-12T11:12:02.557Z,71
2022-09-12T11:13:02.413Z,69
2022-09-12T11:14:02.292Z,71
2022-09-12T11:15:02.123Z,67
2022-09-12T11:16:02.019Z,64
2022-09-12T11:17:01.892Z,66
2022-09-12T11:18:01.710Z,65
2022-09-12T11:19:01.580Z,62
2022-09-12T11:20:02.523Z,63
2022-09-12T11:21:02.357Z,66
2022-09-12T11:22:02.211Z,65
2022-09-12T11:23:02.110Z,63
2022-09-12T11:24:01.904Z,66
2022-09-12T11:25:01.812Z,62
2022-09-12T11:26:01.612Z,64
2022-09-12T11:27:02.524Z,65
2022-09-12T11:28:02.404Z,66
2022-09-12T11:29:02.223Z,63
2022-09-12T11:30:02.132Z,65
2022-09-12T11:31:01.961Z,64
2022-09-12T11:32:01.789Z,64
2022-09-12T11:33:01.654Z,63
2022-09-12T11:34:01.572Z,65
2022-09-12T11:35:02.463Z,68
2022-09-12T11:36:02.333Z,68
2022-09-12T11:37:02.186Z,67
2022-09-12T11:38:02.100Z,67
2022-09-12T11:39:01.951Z,65
2022-09-12T11:40:01.925Z,67
2022-09-12T11:41:01.884Z,69
2022-09-12T11:42:01.712Z,67
2022-09-12T11:43:01.563Z,65
2022-09-12T11:44:02.432Z,70
2022-09-12T11:45:02.292Z,66
2022-09-12T11:46:02.058Z,69
2022-09-12T11:47:01.940Z,70
2022-09-12T11:48:01.820Z,68
2022-09-12T11:49:01.641Z,69
2022-09-12T11:50:02.553Z,67
2022-09-12T11:51:02.458Z,67
2022-09-12T11:52:02.284Z,66
2022-09-12T11:53:02.157Z,65
2022-09-12T11:54:02.048Z,65
2022-09-12T11:55:01.885Z,65
2022-09-12T11:56:01.965Z,66
2022-09-12T11:57:01.774Z,66
2022-09-12T11:58:01.623Z,71
2022-09-12T11:59:02.505Z,69
2022-09-12T12:00:02.354Z,70
2022-09-12T12:01:02.136Z,68
2022-09-12T12:02:02.098Z,72
2022-09-12T12:03:02.056Z,69
2022-09-12T12:04:02.027Z,72
2022-09-12T12:05:01.920Z,71
2022-09-12T12:06:01.753Z,73
2022-09-12T12:07:01.786Z,71
2022-09-12T12:08:01.868Z,72
2022-09-12T12:09:01.674Z,74
2022-09-12T12:10:01.585Z,75
2022-09-12T12:11:02.608Z,71
2022-09-12T12:12:02.436Z,73
2022-09-12T12:13:02.286Z,73
2022-09-12T12:14:02.138Z,74
2022-09-12T12:15:02.027Z,72
2022-09-12T12:16:02.166Z,71
2022-09-12T12:17:02.201Z,69
2022-09-12T12:18:02.046Z,71
2022-09-12T12:19:01.918Z,66
2022-09-12T12:20:08.549Z,70
2022-09-12T12:21:01.632Z,68
2022-09-12T12:22:02.489Z,70
2022-09-12T12:23:02.357Z,70
2022-09-12T12:24:02.215Z,71
2022-09-12T12:25:02.033Z,70
2022-09-12T12:26:01.865Z,71
2022-09-12T12:27:01.731Z,70
2022-09-12T12:28:01.624Z,68
2022-09-12T12:29:01.587Z,70
2022-09-12T12:30:02.490Z,70
2022-09-12T12:31:02.665Z,68
2022-09-12T12:32:01.865Z,68
2022-09-12T12:33:01.679Z,69
2022-09-12T12:34:01.758Z,70
2022-09-12T12:35:01.572Z,67
2022-09-12T12:36:02.657Z,67
2022-09-12T12:37:07.644Z,66
2022-09-12T12:38:02.503Z,67
2022-09-12T12:39:02.556Z,69
2022-09-12T12:40:02.498Z,68
2022-09-12T12:41:02.680Z,70
2022-09-12T12:42:02.660Z,70
2022-09-12T12:43:02.529Z,69
2022-09-12T12:44:02.357Z,67
2022-09-12T12:45:02.412Z,71
2022-09-12T12:46:02.145Z,70
2022-09-12T12:47:02.241Z,72
2022-09-12T12:48:08.221Z,67
2022-09-12T12:49:02.318Z,69
2022-09-12T12:50:02.147Z,69
2022-09-12T12:51:02.210Z,70
2022-09-12T12:52:02.001Z,69
2022-09-12T12:53:02.077Z,70
2022-09-12T12:54:02.047Z,68
2022-09-12T12:55:01.904Z,68
2022-09-12T12:56:01.910Z,65
2022-09-12T12:57:01.733Z,65
2022-09-12T12:58:01.819Z,67
2022-09-12T12:59:01.769Z,72
2022-09-12T13:00:01.611Z,70
2022-09-12T13:01:01.597Z,71
2022-09-12T13:02:02.764Z,70
2022-09-12T13:03:01.690Z,70
2022-09-12T13:04:01.745Z,72
2022-09-12T13:05:01.752Z,71
2022-09-12T13:06:01.607Z,75
2022-09-12T13:07:08.558Z,76
2022-09-12T13:08:01.601Z,82
2022-09-12T13:09:02.601Z,79
2022-09-12T13:10:02.550Z,82
2022-09-12T13:11:02.377Z,85
2022-09-12T13:12:02.407Z,78
2022-09-12T13:13:02.241Z,78
2022-09-12T13:14:02.247Z,79
2022-09-12T13:15:02.018Z,76
2022-09-12T13:16:01.926Z,75
2022-09-12T13:17:02.134Z,83
2022-09-12T13:18:01.961Z,77
2022-09-12T13:19:01.988Z,74
2022-09-12T13:20:28.587Z,73
2022-09-12T13:21:02.647Z,73
2022-09-12T13:22:02.466Z,76
2022-09-12T13:23:02.521Z,73
2022-09-12T13:24:02.353Z,75
2022-09-12T13:25:02.357Z,73
2022-09-12T13:26:02.367Z,73
2022-09-12T13:27:02.173Z,74
2022-09-12T13:28:02.251Z,74
2022-09-12T13:29:02.078Z,80
2022-09-12T13:30:02.021Z,77
2022-09-12T13:31:01.942Z,75
2022-09-12T13:32:02.060Z,78
2022-09-12T13:33:01.880Z,78
2022-09-12T13:34:01.873Z,79
2022-09-12T13:35:01.690Z,81
2022-09-12T13:36:01.718Z,83
2022-09-12T13:37:01.732Z,85
2022-09-12T13:38:02.685Z,84
2022-09-12T13:39:02.530Z,86
2022-09-12T13:40:02.721Z,83
2022-09-12T13:41:01.634Z,88
2022-09-12T13:42:02.696Z,85
2022-09-12T13:43:02.513Z,86
2022-09-12T13:44:02.543Z,85
2022-09-12T13:45:02.315Z,84
2022-09-12T13:46:02.362Z,87
2022-09-12T13:47:02.432Z,83
2022-09-12T13:48:02.269Z,84
2022-09-12T13:49:02.280Z,85
2022-09-12T13:50:02.046Z,88
2022-09-12T13:51:01.957Z,84
2022-09-12T13:52:02.043Z,89
2022-09-12T13:53:01.875Z,85
2022-09-12T13:54:01.934Z,84
2022-09-12T13:55:01.701Z,84
2022-09-12T13:56:01.737Z,87